sensor_id;sensor_type;location;lat;lon;timestamp;P1;durP1;ratioP1;P2;durP2;ratioP2
41952;SDS011;63613;28.200;112.870;2023-02-26T00:01:14;87.35;;;56.58;;
41952;SDS011;63613;28.200;112.870;2023-02-26T00:03:49;87.40;;;56.15;;
41952;SDS011;63613;28.200;112.870;2023-02-26T00:06:16;90.05;;;57.78;;
41952;SDS011;63613;28.200;112.870;2023-02-26T00:08:43;95.50;;;58.05;;
41952;SDS011;63613;28.200;112.870;2023-02-26T00:11:10;88.68;;;55.70;;
41952;SDS011;63613;28.200;112.870;2023-02-26T00:13:38;89.10;;;56.42;;
41952;SDS011;63613;28.200;112.870;2023-02-26T00:16:49;83.18;;;54.38;;
41952;SDS011;63613;28.200;112.870;2023-02-26T00:19:00;86.00;;;53.08;;
41952;SDS011;63613;28.200;112.870;2023-02-26T00:21:29;85.50;;;55.67;;
41952;SDS011;63613;28.200;112.870;2023-02-26T00:23:57;82.82;;;52.75;;
41952;SDS011;63613;28.200;112.870;2023-02-26T00:26:25;81.78;;;53.75;;
41952;SDS011;63613;28.200;112.870;2023-02-26T00:28:53;74.03;;;49.42;;
41952;SDS011;63613;28.200;112.870;2023-02-26T00:31:21;73.85;;;48.35;;
41952;SDS011;63613;28.200;112.870;2023-02-26T00:33:52;77.13;;;50.55;;
41952;SDS011;63613;28.200;112.870;2023-02-26T00:36:21;73.55;;;48.33;;
41952;SDS011;63613;28.200;112.870;2023-02-26T00:39:14;75.55;;;48.10;;
41952;SDS011;63613;28.200;112.870;2023-02-26T00:42:15;75.38;;;48.17;;
41952;SDS011;63613;28.200;112.870;2023-02-26T00:44:42;77.85;;;50.63;;
41952;SDS011;63613;28.200;112.870;2023-02-26T00:55:46;81.57;;;52.65;;
41952;SDS011;63613;28.200;112.870;2023-02-26T00:58:13;81.80;;;54.30;;
41952;SDS011;63613;28.200;112.870;2023-02-26T01:00:40;84.55;;;54.22;;
41952;SDS011;63613;28.200;112.870;2023-02-26T01:03:07;91.07;;;56.17;;
41952;SDS011;63613;28.200;112.870;2023-02-26T01:05:35;90.20;;;58.75;;
41952;SDS011;63613;28.200;112.870;2023-02-26T01:10:49;95.45;;;59.92;;
41952;SDS011;63613;28.200;112.870;2023-02-26T01:13:16;92.40;;;58.10;;
41952;SDS011;63613;28.200;112.870;2023-02-26T01:15:56;84.13;;;54.53;;
41952;SDS011;63613;28.200;112.870;2023-02-26T01:21:44;94.85;;;60.33;;
41952;SDS011;63613;28.200;112.870;2023-02-26T01:24:32;102.55;;;62.13;;
41952;SDS011;63613;28.200;112.870;2023-02-26T01:27:00;98.38;;;65.57;;
41952;SDS011;63613;28.200;112.870;2023-02-26T01:29:27;98.47;;;61.88;;
41952;SDS011;63613;28.200;112.870;2023-02-26T01:34:59;95.95;;;59.78;;
41952;SDS011;63613;28.200;112.870;2023-02-26T01:37:39;98.13;;;66.00;;
41952;SDS011;63613;28.200;112.870;2023-02-26T01:40:32;95.88;;;60.88;;
41952;SDS011;63613;28.200;112.870;2023-02-26T01:43:02;96.88;;;62.22;;
41952;SDS011;63613;28.200;112.870;2023-02-26T01:45:46;107.43;;;67.22;;
41952;SDS011;63613;28.200;112.870;2023-02-26T01:48:47;111.32;;;69.28;;
41952;SDS011;63613;28.200;112.870;2023-02-26T01:51:36;111.07;;;68.53;;
41952;SDS011;63613;28.200;112.870;2023-02-26T01:56:41;125.25;;;73.13;;
41952;SDS011;63613;28.200;112.870;2023-02-26T01:59:10;112.93;;;68.15;;
41952;SDS011;63613;28.200;112.870;2023-02-26T02:01:40;120.45;;;74.03;;
41952;SDS011;63613;28.200;112.870;2023-02-26T02:04:12;117.93;;;71.75;;
41952;SDS011;63613;28.200;112.870;2023-02-26T02:06:40;113.32;;;67.25;;
41952;SDS011;63613;28.200;112.870;2023-02-26T02:09:08;117.05;;;71.05;;
41952;SDS011;63613;28.200;112.870;2023-02-26T02:11:39;109.78;;;69.38;;
41952;SDS011;63613;28.200;112.870;2023-02-26T02:14:59;116.10;;;70.07;;
41952;SDS011;63613;28.200;112.870;2023-02-26T02:22:56;112.25;;;66.68;;
41952;SDS011;63613;28.200;112.870;2023-02-26T02:28:37;116.55;;;68.90;;
41952;SDS011;63613;28.200;112.870;2023-02-26T02:36:40;119.18;;;71.90;;
41952;SDS011;63613;28.200;112.870;2023-02-26T02:39:26;124.78;;;75.93;;
41952;SDS011;63613;28.200;112.870;2023-02-26T02:42:18;117.82;;;69.13;;
41952;SDS011;63613;28.200;112.870;2023-02-26T02:45:07;119.97;;;66.80;;
41952;SDS011;63613;28.200;112.870;2023-02-26T02:47:40;116.90;;;67.30;;
41952;SDS011;63613;28.200;112.870;2023-02-26T02:50:21;117.85;;;64.55;;
41952;SDS011;63613;28.200;112.870;2023-02-26T02:53:13;109.72;;;66.70;;
41952;SDS011;63613;28.200;112.870;2023-02-26T02:56:06;108.63;;;62.15;;
41952;SDS011;63613;28.200;112.870;2023-02-26T02:58:42;109.90;;;63.42;;
41952;SDS011;63613;28.200;112.870;2023-02-26T03:01:21;106.68;;;62.90;;
41952;SDS011;63613;28.200;112.870;2023-02-26T03:03:56;100.30;;;61.63;;
41952;SDS011;63613;28.200;112.870;2023-02-26T03:06:27;103.50;;;62.15;;
41952;SDS011;63613;28.200;112.870;2023-02-26T03:08:54;75.18;;;47.67;;
41952;SDS011;63613;28.200;112.870;2023-02-26T03:11:21;63.13;;;40.88;;
41952;SDS011;63613;28.200;112.870;2023-02-26T03:13:48;58.13;;;37.97;;
41952;SDS011;63613;28.200;112.870;2023-02-26T03:22:34;76.38;;;50.35;;
41952;SDS011;63613;28.200;112.870;2023-02-26T03:28:01;68.53;;;43.70;;
41952;SDS011;63613;28.200;112.870;2023-02-26T03:30:33;91.20;;;58.08;;
41952;SDS011;63613;28.200;112.870;2023-02-26T03:33:13;111.53;;;70.72;;
41952;SDS011;63613;28.200;112.870;2023-02-26T03:35:52;103.97;;;66.10;;
41952;SDS011;63613;28.200;112.870;2023-02-26T03:38:46;109.75;;;72.40;;
41952;SDS011;63613;28.200;112.870;2023-02-26T03:41:44;123.25;;;80.13;;
41952;SDS011;63613;28.200;112.870;2023-02-26T03:44:15;113.38;;;75.03;;
41952;SDS011;63613;28.200;112.870;2023-02-26T03:46:46;120.18;;;78.80;;
41952;SDS011;63613;28.200;112.870;2023-02-26T03:49:18;121.63;;;78.40;;
41952;SDS011;63613;28.200;112.870;2023-02-26T03:51:51;112.50;;;69.03;;
41952;SDS011;63613;28.200;112.870;2023-02-26T03:54:20;123.85;;;78.65;;
41952;SDS011;63613;28.200;112.870;2023-02-26T03:56:51;124.63;;;76.50;;
41952;SDS011;63613;28.200;112.870;2023-02-26T03:59:18;118.55;;;78.32;;
41952;SDS011;63613;28.200;112.870;2023-02-26T04:04:56;111.80;;;74.57;;
41952;SDS011;63613;28.200;112.870;2023-02-26T04:07:36;120.03;;;75.97;;
41952;SDS011;63613;28.200;112.870;2023-02-26T04:10:04;134.25;;;84.80;;
41952;SDS011;63613;28.200;112.870;2023-02-26T04:12:33;133.95;;;85.35;;
41952;SDS011;63613;28.200;112.870;2023-02-26T04:15:00;125.82;;;79.80;;
41952;SDS011;63613;28.200;112.870;2023-02-26T04:17:31;134.00;;;86.88;;
41952;SDS011;63613;28.200;112.870;2023-02-26T04:19:58;119.10;;;74.65;;
41952;SDS011;63613;28.200;112.870;2023-02-26T04:22:24;127.30;;;82.18;;
41952;SDS011;63613;28.200;112.870;2023-02-26T04:24:51;147.18;;;89.22;;
41952;SDS011;63613;28.200;112.870;2023-02-26T04:27:18;137.77;;;88.32;;
41952;SDS011;63613;28.200;112.870;2023-02-26T04:29:45;129.43;;;83.75;;
41952;SDS011;63613;28.200;112.870;2023-02-26T04:32:12;143.88;;;87.10;;
41952;SDS011;63613;28.200;112.870;2023-02-26T04:34:38;139.70;;;89.13;;
41952;SDS011;63613;28.200;112.870;2023-02-26T04:37:05;142.68;;;88.32;;
41952;SDS011;63613;28.200;112.870;2023-02-26T04:39:52;135.00;;;85.07;;
41952;SDS011;63613;28.200;112.870;2023-02-26T04:42:18;219.20;;;111.43;;
41952;SDS011;63613;28.200;112.870;2023-02-26T04:44:45;168.55;;;98.80;;
41952;SDS011;63613;28.200;112.870;2023-02-26T04:47:12;223.63;;;114.28;;
41952;SDS011;63613;28.200;112.870;2023-02-26T04:49:39;266.77;;;121.32;;
41952;SDS011;63613;28.200;112.870;2023-02-26T04:52:06;209.85;;;113.57;;
41952;SDS011;63613;28.200;112.870;2023-02-26T04:54:33;191.20;;;103.53;;
41952;SDS011;63613;28.200;112.870;2023-02-26T04:57:02;135.05;;;82.18;;
41952;SDS011;63613;28.200;112.870;2023-02-26T04:59:29;133.35;;;82.88;;
41952;SDS011;63613;28.200;112.870;2023-02-26T05:01:56;157.93;;;88.63;;
41952;SDS011;63613;28.200;112.870;2023-02-26T05:04:24;170.48;;;99.38;;
41952;SDS011;63613;28.200;112.870;2023-02-26T05:06:52;146.18;;;88.32;;
41952;SDS011;63613;28.200;112.870;2023-02-26T05:09:19;136.23;;;84.53;;
41952;SDS011;63613;28.200;112.870;2023-02-26T05:11:46;127.30;;;78.93;;
41952;SDS011;63613;28.200;112.870;2023-02-26T05:14:14;145.07;;;89.78;;
41952;SDS011;63613;28.200;112.870;2023-02-26T05:16:41;135.65;;;84.65;;
41952;SDS011;63613;28.200;112.870;2023-02-26T05:19:08;135.55;;;85.30;;
41952;SDS011;63613;28.200;112.870;2023-02-26T05:21:35;126.13;;;80.05;;
41952;SDS011;63613;28.200;112.870;2023-02-26T05:24:02;125.50;;;82.25;;
41952;SDS011;63613;28.200;112.870;2023-02-26T05:26:29;129.27;;;87.03;;
41952;SDS011;63613;28.200;112.870;2023-02-26T05:28:56;123.18;;;83.55;;
41952;SDS011;63613;28.200;112.870;2023-02-26T05:31:43;118.22;;;81.93;;
41952;SDS011;63613;28.200;112.870;2023-02-26T05:37:08;120.38;;;81.30;;
41952;SDS011;63613;28.200;112.870;2023-02-26T05:39:35;118.93;;;79.75;;
41952;SDS011;63613;28.200;112.870;2023-02-26T05:42:02;117.55;;;77.13;;
41952;SDS011;63613;28.200;112.870;2023-02-26T05:44:29;118.00;;;79.93;;
41952;SDS011;63613;28.200;112.870;2023-02-26T05:46:55;119.38;;;77.63;;
41952;SDS011;63613;28.200;112.870;2023-02-26T05:49:22;113.68;;;76.05;;
41952;SDS011;63613;28.200;112.870;2023-02-26T05:51:49;110.70;;;75.65;;
41952;SDS011;63613;28.200;112.870;2023-02-26T05:54:16;111.55;;;76.18;;
41952;SDS011;63613;28.200;112.870;2023-02-26T05:57:03;111.22;;;75.13;;
41952;SDS011;63613;28.200;112.870;2023-02-26T05:59:30;114.45;;;73.40;;
41952;SDS011;63613;28.200;112.870;2023-02-26T06:01:57;112.43;;;75.60;;
41952;SDS011;63613;28.200;112.870;2023-02-26T06:04:26;108.50;;;74.25;;
41952;SDS011;63613;28.200;112.870;2023-02-26T06:06:55;108.78;;;72.53;;
41952;SDS011;63613;28.200;112.870;2023-02-26T06:09:22;103.75;;;71.20;;
41952;SDS011;63613;28.200;112.870;2023-02-26T06:11:49;106.00;;;68.95;;
41952;SDS011;63613;28.200;112.870;2023-02-26T06:14:16;103.68;;;69.13;;
41952;SDS011;63613;28.200;112.870;2023-02-26T06:16:42;102.57;;;72.03;;
41952;SDS011;63613;28.200;112.870;2023-02-26T06:19:09;101.90;;;70.15;;
41952;SDS011;63613;28.200;112.870;2023-02-26T06:21:36;103.75;;;70.72;;
41952;SDS011;63613;28.200;112.870;2023-02-26T06:24:03;102.03;;;67.30;;
41952;SDS011;63613;28.200;112.870;2023-02-26T06:26:30;101.45;;;70.22;;
41952;SDS011;63613;28.200;112.870;2023-02-26T06:28:57;99.22;;;67.75;;
41952;SDS011;63613;28.200;112.870;2023-02-26T06:31:24;95.82;;;65.97;;
41952;SDS011;63613;28.200;112.870;2023-02-26T06:33:50;96.60;;;67.90;;
41952;SDS011;63613;28.200;112.870;2023-02-26T06:36:17;92.03;;;64.95;;
41952;SDS011;63613;28.200;112.870;2023-02-26T06:38:44;96.97;;;66.47;;
41952;SDS011;63613;28.200;112.870;2023-02-26T06:41:11;93.13;;;64.75;;
41952;SDS011;63613;28.200;112.870;2023-02-26T06:43:38;91.95;;;62.60;;
41952;SDS011;63613;28.200;112.870;2023-02-26T06:46:05;89.22;;;61.85;;
41952;SDS011;63613;28.200;112.870;2023-02-26T06:48:52;92.57;;;63.83;;
41952;SDS011;63613;28.200;112.870;2023-02-26T06:51:19;84.88;;;61.00;;
41952;SDS011;63613;28.200;112.870;2023-02-26T06:53:46;92.70;;;66.03;;
41952;SDS011;63613;28.200;112.870;2023-02-26T06:56:13;87.63;;;61.42;;
41952;SDS011;63613;28.200;112.870;2023-02-26T06:58:40;85.15;;;58.17;;
41952;SDS011;63613;28.200;112.870;2023-02-26T07:01:09;85.03;;;60.15;;
41952;SDS011;63613;28.200;112.870;2023-02-26T07:03:36;83.22;;;56.33;;
41952;SDS011;63613;28.200;112.870;2023-02-26T07:06:03;84.75;;;56.55;;
41952;SDS011;63613;28.200;112.870;2023-02-26T07:08:33;82.97;;;58.17;;
41952;SDS011;63613;28.200;112.870;2023-02-26T07:11:00;82.90;;;56.53;;
41952;SDS011;63613;28.200;112.870;2023-02-26T07:13:27;81.03;;;56.42;;
41952;SDS011;63613;28.200;112.870;2023-02-26T07:15:54;78.13;;;56.80;;
41952;SDS011;63613;28.200;112.870;2023-02-26T07:18:21;82.15;;;58.03;;
41952;SDS011;63613;28.200;112.870;2023-02-26T07:20:48;82.25;;;55.85;;
41952;SDS011;63613;28.200;112.870;2023-02-26T07:23:15;78.32;;;54.13;;
41952;SDS011;63613;28.200;112.870;2023-02-26T07:25:47;73.25;;;54.08;;
41952;SDS011;63613;28.200;112.870;2023-02-26T07:28:14;71.03;;;49.83;;
41952;SDS011;63613;28.200;112.870;2023-02-26T07:30:41;75.07;;;53.05;;
41952;SDS011;63613;28.200;112.870;2023-02-26T07:33:08;78.10;;;52.58;;
41952;SDS011;63613;28.200;112.870;2023-02-26T07:35:35;71.68;;;53.20;;
41952;SDS011;63613;28.200;112.870;2023-02-26T07:38:01;72.15;;;51.88;;
41952;SDS011;63613;28.200;112.870;2023-02-26T07:40:28;68.18;;;49.42;;
41952;SDS011;63613;28.200;112.870;2023-02-26T07:42:55;72.75;;;53.13;;
41952;SDS011;63613;28.200;112.870;2023-02-26T07:45:42;65.68;;;49.13;;
41952;SDS011;63613;28.200;112.870;2023-02-26T07:48:11;69.60;;;50.13;;
41952;SDS011;63613;28.200;112.870;2023-02-26T07:50:40;66.05;;;48.65;;
41952;SDS011;63613;28.200;112.870;2023-02-26T07:53:06;68.75;;;48.38;;
41952;SDS011;63613;28.200;112.870;2023-02-26T07:55:33;66.57;;;47.17;;
41952;SDS011;63613;28.200;112.870;2023-02-26T07:58:00;66.72;;;48.08;;
41952;SDS011;63613;28.200;112.870;2023-02-26T08:00:27;67.22;;;48.92;;
41952;SDS011;63613;28.200;112.870;2023-02-26T08:02:54;63.95;;;46.72;;
41952;SDS011;63613;28.200;112.870;2023-02-26T08:05:20;63.97;;;47.33;;
41952;SDS011;63613;28.200;112.870;2023-02-26T08:07:47;67.57;;;48.92;;
41952;SDS011;63613;28.200;112.870;2023-02-26T08:10:14;67.15;;;49.55;;
41952;SDS011;63613;28.200;112.870;2023-02-26T08:12:41;66.95;;;47.67;;
41952;SDS011;63613;28.200;112.870;2023-02-26T08:15:08;61.33;;;45.35;;
41952;SDS011;63613;28.200;112.870;2023-02-26T08:17:39;63.10;;;44.95;;
41952;SDS011;63613;28.200;112.870;2023-02-26T08:20:06;59.78;;;43.95;;
41952;SDS011;63613;28.200;112.870;2023-02-26T08:22:34;59.45;;;45.58;;
41952;SDS011;63613;28.200;112.870;2023-02-26T08:25:00;60.83;;;44.70;;
41952;SDS011;63613;28.200;112.870;2023-02-26T08:27:27;59.33;;;44.03;;
41952;SDS011;63613;28.200;112.870;2023-02-26T08:29:54;58.10;;;42.80;;
41952;SDS011;63613;28.200;112.870;2023-02-26T08:32:21;59.15;;;42.33;;
41952;SDS011;63613;28.200;112.870;2023-02-26T08:34:49;58.72;;;43.42;;
41952;SDS011;63613;28.200;112.870;2023-02-26T08:37:15;60.88;;;43.70;;
41952;SDS011;63613;28.200;112.870;2023-02-26T08:40:03;58.17;;;42.47;;
41952;SDS011;63613;28.200;112.870;2023-02-26T08:42:32;56.08;;;42.85;;
41952;SDS011;63613;28.200;112.870;2023-02-26T08:44:59;57.40;;;43.33;;
41952;SDS011;63613;28.200;112.870;2023-02-26T08:47:26;58.42;;;42.10;;
41952;SDS011;63613;28.200;112.870;2023-02-26T08:49:52;60.80;;;42.95;;
41952;SDS011;63613;28.200;112.870;2023-02-26T08:52:19;54.15;;;40.42;;
41952;SDS011;63613;28.200;112.870;2023-02-26T08:54:47;57.35;;;40.58;;
41952;SDS011;63613;28.200;112.870;2023-02-26T08:57:15;55.75;;;41.58;;
41952;SDS011;63613;28.200;112.870;2023-02-26T08:59:45;56.58;;;42.75;;
41952;SDS011;63613;28.200;112.870;2023-02-26T09:02:13;58.05;;;41.50;;
41952;SDS011;63613;28.200;112.870;2023-02-26T09:04:40;55.65;;;41.45;;
41952;SDS011;63613;28.200;112.870;2023-02-26T09:07:07;52.67;;;39.72;;
41952;SDS011;63613;28.200;112.870;2023-02-26T09:09:34;52.90;;;39.80;;
41952;SDS011;63613;28.200;112.870;2023-02-26T09:12:00;55.20;;;39.75;;
41952;SDS011;63613;28.200;112.870;2023-02-26T09:14:27;54.15;;;41.03;;
41952;SDS011;63613;28.200;112.870;2023-02-26T09:16:54;52.92;;;40.13;;
41952;SDS011;63613;28.200;112.870;2023-02-26T09:19:21;51.47;;;37.65;;
41952;SDS011;63613;28.200;112.870;2023-02-26T09:21:48;54.67;;;38.13;;
41952;SDS011;63613;28.200;112.870;2023-02-26T09:24:15;54.95;;;39.15;;
41952;SDS011;63613;28.200;112.870;2023-02-26T09:26:42;51.20;;;37.60;;
41952;SDS011;63613;28.200;112.870;2023-02-26T09:29:08;52.42;;;38.92;;
41952;SDS011;63613;28.200;112.870;2023-02-26T09:31:39;50.90;;;37.22;;
41952;SDS011;63613;28.200;112.870;2023-02-26T09:34:07;52.08;;;37.78;;
41952;SDS011;63613;28.200;112.870;2023-02-26T09:36:33;56.83;;;42.17;;
41952;SDS011;63613;28.200;112.870;2023-02-26T09:39:02;55.95;;;41.05;;
41952;SDS011;63613;28.200;112.870;2023-02-26T09:41:30;60.65;;;43.05;;
41952;SDS011;63613;28.200;112.870;2023-02-26T09:49:23;75.75;;;48.70;;
41952;SDS011;63613;28.200;112.870;2023-02-26T09:54:51;73.18;;;48.38;;
41952;SDS011;63613;28.200;112.870;2023-02-26T09:57:30;74.60;;;50.22;;
41952;SDS011;63613;28.200;112.870;2023-02-26T09:59:59;71.70;;;50.65;;
41952;SDS011;63613;28.200;112.870;2023-02-26T10:05:16;79.90;;;49.95;;
41952;SDS011;63613;28.200;112.870;2023-02-26T10:07:49;82.18;;;49.95;;
41952;SDS011;63613;28.200;112.870;2023-02-26T10:12:57;74.07;;;48.67;;
41952;SDS011;63613;28.200;112.870;2023-02-26T10:15:56;72.45;;;45.15;;
41952;SDS011;63613;28.200;112.870;2023-02-26T10:18:31;81.38;;;49.50;;
41952;SDS011;63613;28.200;112.870;2023-02-26T10:21:13;84.13;;;51.55;;
41952;SDS011;63613;28.200;112.870;2023-02-26T10:23:52;80.18;;;49.67;;
41952;SDS011;63613;28.200;112.870;2023-02-26T10:26:22;76.13;;;46.55;;
41952;SDS011;63613;28.200;112.870;2023-02-26T10:34:40;71.80;;;47.17;;
41952;SDS011;63613;28.200;112.870;2023-02-26T10:40:30;66.75;;;44.92;;
41952;SDS011;63613;28.200;112.870;2023-02-26T10:48:51;72.45;;;42.65;;
41952;SDS011;63613;28.200;112.870;2023-02-26T10:51:38;67.53;;;40.72;;
41952;SDS011;63613;28.200;112.870;2023-02-26T10:54:19;102.25;;;63.08;;
41952;SDS011;63613;28.200;112.870;2023-02-26T10:57:33;99.55;;;63.63;;
41952;SDS011;63613;28.200;112.870;2023-02-26T11:00:04;100.63;;;63.13;;
41952;SDS011;63613;28.200;112.870;2023-02-26T11:02:40;96.28;;;64.00;;
41952;SDS011;63613;28.200;112.870;2023-02-26T11:05:17;105.90;;;65.15;;
41952;SDS011;63613;28.200;112.870;2023-02-26T11:07:58;104.05;;;65.22;;
41952;SDS011;63613;28.200;112.870;2023-02-26T11:10:47;98.90;;;58.67;;
41952;SDS011;63613;28.200;112.870;2023-02-26T11:13:27;94.88;;;57.05;;
41952;SDS011;63613;28.200;112.870;2023-02-26T11:15:57;90.85;;;55.45;;
41952;SDS011;63613;28.200;112.870;2023-02-26T11:18:44;92.07;;;53.22;;
41952;SDS011;63613;28.200;112.870;2023-02-26T11:21:22;94.82;;;53.40;;
41952;SDS011;63613;28.200;112.870;2023-02-26T11:24:28;91.47;;;54.22;;
41952;SDS011;63613;28.200;112.870;2023-02-26T11:27:02;87.25;;;51.03;;
41952;SDS011;63613;28.200;112.870;2023-02-26T11:29:34;95.38;;;51.65;;
41952;SDS011;63613;28.200;112.870;2023-02-26T11:32:14;91.05;;;52.88;;
41952;SDS011;63613;28.200;112.870;2023-02-26T11:34:48;86.88;;;51.45;;
41952;SDS011;63613;28.200;112.870;2023-02-26T11:37:20;89.85;;;48.47;;
41952;SDS011;63613;28.200;112.870;2023-02-26T11:39:52;94.88;;;49.22;;
41952;SDS011;63613;28.200;112.870;2023-02-26T11:42:25;88.88;;;48.60;;
41952;SDS011;63613;28.200;112.870;2023-02-26T11:44:59;86.65;;;48.13;;
41952;SDS011;63613;28.200;112.870;2023-02-26T11:47:28;83.15;;;45.45;;
41952;SDS011;63613;28.200;112.870;2023-02-26T11:50:00;85.80;;;47.78;;
41952;SDS011;63613;28.200;112.870;2023-02-26T11:52:42;85.05;;;46.50;;
41952;SDS011;63613;28.200;112.870;2023-02-26T11:55:17;89.30;;;47.60;;
41952;SDS011;63613;28.200;112.870;2023-02-26T11:57:49;87.00;;;45.92;;
41952;SDS011;63613;28.200;112.870;2023-02-26T12:00:19;91.47;;;47.80;;
41952;SDS011;63613;28.200;112.870;2023-02-26T12:02:50;87.68;;;46.70;;
41952;SDS011;63613;28.200;112.870;2023-02-26T12:05:21;82.93;;;45.38;;
41952;SDS011;63613;28.200;112.870;2023-02-26T12:07:49;76.72;;;42.67;;
41952;SDS011;63613;28.200;112.870;2023-02-26T12:10:29;77.57;;;42.60;;
41952;SDS011;63613;28.200;112.870;2023-02-26T12:16:14;78.47;;;41.90;;
41952;SDS011;63613;28.200;112.870;2023-02-26T12:18:56;78.07;;;43.22;;
41952;SDS011;63613;28.200;112.870;2023-02-26T12:24:23;69.47;;;39.70;;
41952;SDS011;63613;28.200;112.870;2023-02-26T12:42:04;79.45;;;40.42;;
41952;SDS011;63613;28.200;112.870;2023-02-26T12:47:26;71.63;;;40.03;;
41952;SDS011;63613;28.200;112.870;2023-02-26T12:53:09;73.78;;;40.95;;
41952;SDS011;63613;28.200;112.870;2023-02-26T13:07:45;66.43;;;38.95;;
41952;SDS011;63613;28.200;112.870;2023-02-26T13:10:26;65.75;;;39.90;;
41952;SDS011;63613;28.200;112.870;2023-02-26T13:13:09;68.35;;;39.50;;
41952;SDS011;63613;28.200;112.870;2023-02-26T13:18:53;63.17;;;35.75;;
41952;SDS011;63613;28.200;112.870;2023-02-26T13:21:38;62.92;;;38.42;;
41952;SDS011;63613;28.200;112.870;2023-02-26T13:24:19;57.80;;;36.33;;
41952;SDS011;63613;28.200;112.870;2023-02-26T13:26:50;58.10;;;36.58;;
41952;SDS011;63613;28.200;112.870;2023-02-26T13:32:22;66.45;;;39.60;;
41952;SDS011;63613;28.200;112.870;2023-02-26T13:34:56;63.25;;;38.85;;
41952;SDS011;63613;28.200;112.870;2023-02-26T13:37:38;62.15;;;38.33;;
41952;SDS011;63613;28.200;112.870;2023-02-26T13:45:51;63.72;;;38.92;;
41952;SDS011;63613;28.200;112.870;2023-02-26T13:53:47;60.47;;;37.97;;
41952;SDS011;63613;28.200;112.870;2023-02-26T13:56:40;54.20;;;35.20;;
41952;SDS011;63613;28.200;112.870;2023-02-26T14:04:22;56.33;;;36.47;;
41952;SDS011;63613;28.200;112.870;2023-02-26T14:17:07;54.13;;;35.35;;
41952;SDS011;63613;28.200;112.870;2023-02-26T14:19:44;58.70;;;35.60;;
41952;SDS011;63613;28.200;112.870;2023-02-26T14:22:48;56.05;;;35.13;;
41952;SDS011;63613;28.200;112.870;2023-02-26T14:25:40;56.45;;;35.63;;
41952;SDS011;63613;28.200;112.870;2023-02-26T14:28:20;54.63;;;35.80;;
41952;SDS011;63613;28.200;112.870;2023-02-26T14:33:43;56.45;;;34.85;;
41952;SDS011;63613;28.200;112.870;2023-02-26T14:36:17;52.65;;;34.13;;
41952;SDS011;63613;28.200;112.870;2023-02-26T14:38:59;59.70;;;35.33;;
41952;SDS011;63613;28.200;112.870;2023-02-26T14:41:33;51.70;;;33.97;;
41952;SDS011;63613;28.200;112.870;2023-02-26T14:44:14;55.35;;;34.85;;
41952;SDS011;63613;28.200;112.870;2023-02-26T14:46:46;55.08;;;36.22;;
41952;SDS011;63613;28.200;112.870;2023-02-26T14:49:32;56.90;;;36.53;;
41952;SDS011;63613;28.200;112.870;2023-02-26T14:52:20;62.88;;;38.05;;
41952;SDS011;63613;28.200;112.870;2023-02-26T14:55:07;55.35;;;36.13;;
41952;SDS011;63613;28.200;112.870;2023-02-26T14:57:58;57.55;;;36.55;;
41952;SDS011;63613;28.200;112.870;2023-02-26T15:07:22;63.30;;;39.22;;
41952;SDS011;63613;28.200;112.870;2023-02-26T15:20:48;63.78;;;40.30;;
41952;SDS011;63613;28.200;112.870;2023-02-26T15:23:33;72.13;;;45.58;;
41952;SDS011;63613;28.200;112.870;2023-02-26T15:28:43;72.28;;;46.58;;
41952;SDS011;63613;28.200;112.870;2023-02-26T15:31:11;68.45;;;45.72;;
41952;SDS011;63613;28.200;112.870;2023-02-26T15:33:38;78.75;;;50.28;;
41952;SDS011;63613;28.200;112.870;2023-02-26T15:36:07;79.65;;;49.45;;
41952;SDS011;63613;28.200;112.870;2023-02-26T15:38:41;79.75;;;51.30;;
41952;SDS011;63613;28.200;112.870;2023-02-26T15:41:13;80.55;;;48.50;;
41952;SDS011;63613;28.200;112.870;2023-02-26T15:43:45;79.75;;;50.80;;
41952;SDS011;63613;28.200;112.870;2023-02-26T15:46:18;82.45;;;50.00;;
41952;SDS011;63613;28.200;112.870;2023-02-26T15:48:57;80.60;;;47.33;;
41952;SDS011;63613;28.200;112.870;2023-02-26T15:51:37;78.28;;;50.97;;
41952;SDS011;63613;28.200;112.870;2023-02-26T15:54:05;72.20;;;46.45;;
41952;SDS011;63613;28.200;112.870;2023-02-26T15:56:33;75.40;;;50.33;;
41952;SDS011;63613;28.200;112.870;2023-02-26T15:59:06;74.30;;;49.50;;
41952;SDS011;63613;28.200;112.870;2023-02-26T16:02:19;86.35;;;53.00;;
41952;SDS011;63613;28.200;112.870;2023-02-26T16:04:56;81.15;;;51.42;;
41952;SDS011;63613;28.200;112.870;2023-02-26T16:07:23;68.22;;;44.22;;
41952;SDS011;63613;28.200;112.870;2023-02-26T16:09:51;80.40;;;51.05;;
41952;SDS011;63613;28.200;112.870;2023-02-26T16:14:52;74.13;;;50.67;;
41952;SDS011;63613;28.200;112.870;2023-02-26T16:17:31;80.43;;;52.25;;
41952;SDS011;63613;28.200;112.870;2023-02-26T16:20:04;80.93;;;52.53;;
41952;SDS011;63613;28.200;112.870;2023-02-26T16:22:45;78.35;;;50.80;;
41952;SDS011;63613;28.200;112.870;2023-02-26T16:25:29;75.22;;;51.40;;
41952;SDS011;63613;28.200;112.870;2023-02-26T16:28:14;79.43;;;52.20;;
41952;SDS011;63613;28.200;112.870;2023-02-26T16:30:51;79.93;;;50.40;;
41952;SDS011;63613;28.200;112.870;2023-02-26T16:33:21;72.28;;;49.10;;
41952;SDS011;63613;28.200;112.870;2023-02-26T16:35:54;86.47;;;56.75;;
41952;SDS011;63613;28.200;112.870;2023-02-26T16:38:43;95.75;;;57.25;;
41952;SDS011;63613;28.200;112.870;2023-02-26T16:41:12;86.13;;;56.88;;
41952;SDS011;63613;28.200;112.870;2023-02-26T16:46:38;83.95;;;54.22;;
41952;SDS011;63613;28.200;112.870;2023-02-26T16:49:10;78.75;;;51.85;;
41952;SDS011;63613;28.200;112.870;2023-02-26T16:51:48;82.05;;;52.33;;
41952;SDS011;63613;28.200;112.870;2023-02-26T16:54:21;86.20;;;57.25;;
41952;SDS011;63613;28.200;112.870;2023-02-26T16:56:58;81.38;;;52.80;;
41952;SDS011;63613;28.200;112.870;2023-02-26T16:59:29;87.93;;;56.10;;
41952;SDS011;63613;28.200;112.870;2023-02-26T17:02:00;90.32;;;56.50;;
41952;SDS011;63613;28.200;112.870;2023-02-26T17:04:39;84.63;;;55.42;;
41952;SDS011;63613;28.200;112.870;2023-02-26T17:10:18;86.25;;;55.78;;
41952;SDS011;63613;28.200;112.870;2023-02-26T17:12:50;85.07;;;54.80;;
41952;SDS011;63613;28.200;112.870;2023-02-26T17:15:19;87.47;;;56.17;;
41952;SDS011;63613;28.200;112.870;2023-02-26T17:17:54;92.07;;;57.95;;
41952;SDS011;63613;28.200;112.870;2023-02-26T17:20:22;90.93;;;57.55;;
41952;SDS011;63613;28.200;112.870;2023-02-26T17:22:50;82.97;;;54.15;;
41952;SDS011;63613;28.200;112.870;2023-02-26T17:25:19;84.07;;;53.78;;
41952;SDS011;63613;28.200;112.870;2023-02-26T17:27:46;87.15;;;55.10;;